createdAt,value
2019-06-07T00:00:47.903Z,7.10
2019-06-07T00:03:27.398Z,9.23
2019-06-07T00:05:46.335Z,6.58
2019-06-07T00:08:22.674Z,4.95
2019-06-07T00:10:44.742Z,8.40
2019-06-07T00:13:17.107Z,7.47
2019-06-07T00:15:43.953Z,5.95
2019-06-07T00:18:15.042Z,6.25
2019-06-07T00:20:41.991Z,6.20
2019-06-07T00:23:12.190Z,8.63
2019-06-07T00:25:39.721Z,6.23
2019-06-07T00:28:08.220Z,7.60
2019-06-07T00:30:50.829Z,7.53
2019-06-07T00:33:06.242Z,7.22
2019-06-07T00:35:34.272Z,8.83
2019-06-07T00:38:02.322Z,7.60
2019-06-07T00:40:32.252Z,9.60
2019-06-07T00:43:00.491Z,8.73
2019-06-07T00:45:28.829Z,7.62
2019-06-07T00:47:56.884Z,8.83
2019-06-07T00:50:24.936Z,10.08
2019-06-07T00:55:27.352Z,8.63
2019-06-07T00:57:53.469Z,5.47
2019-06-07T01:00:25.364Z,7.57
2019-06-07T01:02:51.882Z,8.40
2019-06-07T01:05:25.444Z,10.00
2019-06-07T01:07:49.981Z,9.25
2019-06-07T01:10:42.438Z,9.70
2019-06-07T01:12:48.741Z,8.85
2019-06-07T01:15:22.207Z,9.78
2019-06-07T01:18:33.078Z,10.53
2019-06-07T01:20:21.242Z,10.08
2019-06-07T01:22:48.529Z,7.90
2019-06-07T01:25:18.242Z,9.18
2019-06-07T01:27:47.215Z,7.92
2019-06-07T01:30:18.623Z,7.35
2019-06-07T01:32:47.339Z,12.50
2019-06-07T01:35:16.602Z,9.08
2019-06-07T01:37:45.100Z,6.25
2019-06-07T01:40:13.709Z,9.05
2019-06-07T01:42:42.133Z,9.98
2019-06-07T01:45:10.636Z,9.48
2019-06-07T01:47:38.940Z,10.38
2019-06-07T01:50:07.340Z,9.28
2019-06-07T01:52:35.367Z,7.97
2019-06-07T01:55:03.792Z,7.77
2019-06-07T01:57:45.470Z,12.60
2019-06-07T02:00:01.886Z,7.83
2019-06-07T02:02:31.731Z,6.60
2019-06-07T02:05:00.073Z,8.13
2019-06-07T02:07:32.595Z,11.00
2019-06-07T02:09:58.180Z,8.40
2019-06-07T02:12:37.579Z,12.00
2019-06-07T02:14:56.494Z,10.18
2019-06-07T02:17:26.746Z,8.70
2019-06-07T02:19:54.299Z,10.10
2019-06-07T02:22:23.639Z,7.50
2019-06-07T02:25:34.025Z,7.53
2019-06-07T02:27:24.654Z,7.10
2019-06-07T02:29:52.872Z,10.05
2019-06-07T02:32:21.717Z,10.60
2019-06-07T02:34:50.973Z,7.23
2019-06-07T02:37:18.984Z,8.70
2019-06-07T02:39:47.096Z,5.92
2019-06-07T02:42:15.101Z,7.43
2019-06-07T02:44:43.461Z,8.53
2019-06-07T02:47:11.531Z,9.30
2019-06-07T02:49:41.960Z,10.47
2019-06-07T02:52:09.908Z,9.18
2019-06-07T02:54:40.513Z,9.75
2019-06-07T02:57:08.325Z,10.23
2019-06-07T03:00:02.870Z,10.20
2019-06-07T03:02:06.345Z,10.00
2019-06-07T03:04:40.797Z,8.50
2019-06-07T03:07:04.971Z,11.22
2019-06-07T03:09:36.788Z,8.40
2019-06-07T03:12:04.808Z,10.70
2019-06-07T03:14:35.832Z,10.00
2019-06-07T03:17:24.025Z,7.20
2019-06-07T03:19:53.954Z,6.65
2019-06-07T03:22:22.631Z,9.40
2019-06-07T03:24:50.776Z,7.87
2019-06-07T03:27:43.946Z,9.50
2019-06-07T03:29:50.436Z,7.33
2019-06-07T03:32:19.204Z,10.05
2019-06-07T03:34:47.631Z,9.40
2019-06-07T03:37:15.981Z,6.20
2019-06-07T03:39:44.023Z,10.40
2019-06-07T03:42:12.357Z,10.03
2019-06-07T03:44:41.655Z,10.88
2019-06-07T03:47:09.834Z,9.03
2019-06-07T03:49:42.164Z,8.40
2019-06-07T03:52:07.881Z,7.20
2019-06-07T03:54:38.382Z,8.33
2019-06-07T03:57:06.596Z,8.58
2019-06-07T03:59:38.697Z,8.60
2019-06-07T04:02:05.121Z,9.55
2019-06-07T04:04:37.827Z,7.23
2019-06-07T04:07:02.912Z,6.58
2019-06-07T04:09:35.610Z,9.95
2019-06-07T04:12:01.468Z,10.93
2019-06-07T04:14:30.819Z,8.65
2019-06-07T04:17:00.087Z,5.75
2019-06-07T04:19:28.889Z,8.80
2019-06-07T04:21:57.872Z,8.80
2019-06-07T04:24:26.249Z,9.40
2019-06-07T04:26:54.729Z,11.05
2019-06-07T04:29:35.713Z,10.72
2019-06-07T04:31:53.197Z,10.20
2019-06-07T04:34:21.240Z,8.15
2019-06-07T04:36:58.413Z,7.53
2019-06-07T04:39:21.561Z,9.63
2019-06-07T04:41:50.444Z,10.40
2019-06-07T04:44:19.449Z,9.00
2019-06-07T04:46:49.203Z,9.48
2019-06-07T04:49:18.561Z,9.70
2019-06-07T04:51:47.695Z,9.20
2019-06-07T04:54:16.425Z,7.65
2019-06-07T04:56:44.907Z,6.65
2019-06-07T04:59:13.360Z,8.10
2019-06-07T05:01:42.733Z,14.23
2019-06-07T05:04:10.935Z,18.92
2019-06-07T05:06:40.309Z,11.10
2019-06-07T05:09:09.051Z,10.48
2019-06-07T05:11:39.298Z,8.75
2019-06-07T05:14:07.265Z,8.95
2019-06-07T05:16:40.254Z,13.13
2019-06-07T05:19:05.866Z,7.53
2019-06-07T05:21:56.016Z,9.13
2019-06-07T05:24:09.518Z,9.80
2019-06-07T05:26:35.910Z,7.37
2019-06-07T05:29:03.075Z,9.90
2019-06-07T05:31:35.341Z,7.75
2019-06-07T05:34:01.476Z,16.17
2019-06-07T05:36:31.344Z,9.70
2019-06-07T05:38:59.583Z,8.23
2019-06-07T05:41:28.631Z,6.47
2019-06-07T05:44:12.067Z,5.12
2019-06-07T05:46:27.074Z,12.30
2019-06-07T05:48:55.162Z,8.58
2019-06-07T05:51:23.619Z,5.92
2019-06-07T05:53:52.012Z,7.10
2019-06-07T05:56:20.765Z,10.80
2019-06-07T05:58:49.147Z,6.35
2019-06-07T06:03:48.449Z,7.00
2019-06-07T06:06:17.469Z,6.72
2019-06-07T06:08:47.923Z,6.55
2019-06-07T06:11:15.854Z,5.58
2019-06-07T06:14:06.107Z,6.25
2019-06-07T06:16:15.178Z,6.83
2019-06-07T06:18:46.846Z,5.87
2019-06-07T06:21:19.323Z,5.80
2019-06-07T06:23:45.833Z,5.92
2019-06-07T06:26:13.924Z,7.22
2019-06-07T06:28:42.740Z,6.70
2019-06-07T06:31:12.767Z,7.35
2019-06-07T06:33:42.901Z,7.97
2019-06-07T06:36:11.693Z,5.67
2019-06-07T06:38:41.342Z,8.20
2019-06-07T06:41:15.943Z,5.25
2019-06-07T06:43:44.387Z,8.20
2019-06-07T06:46:10.963Z,5.20
2019-06-07T06:48:40.904Z,7.62
2019-06-07T06:51:08.927Z,5.05
2019-06-07T06:53:37.317Z,6.97
2019-06-07T06:56:05.607Z,6.67
2019-06-07T06:59:18.782Z,5.65
2019-06-07T07:01:06.994Z,6.10
2019-06-07T07:03:57.607Z,5.72
2019-06-07T07:06:24.628Z,6.97
2019-06-07T07:08:35.410Z,5.22
2019-06-07T07:11:03.386Z,7.08
2019-06-07T07:13:31.480Z,5.08
2019-06-07T07:15:59.707Z,7.77
2019-06-07T07:18:27.698Z,6.87
2019-06-07T07:20:57.560Z,5.28
2019-06-07T07:23:26.389Z,5.90
2019-06-07T07:25:59.246Z,5.17
2019-06-07T07:28:24.366Z,5.92
2019-06-07T07:30:56.467Z,5.80
2019-06-07T07:33:22.753Z,6.20
2019-06-07T07:40:56.821Z,5.33
2019-06-07T07:43:05.147Z,5.22
2019-06-07T07:48:15.688Z,6.83
2019-06-07T07:50:31.813Z,6.00
2019-06-07T07:53:00.685Z,6.00
2019-06-07T07:55:28.860Z,5.28
2019-06-07T07:58:01.749Z,6.92
2019-06-07T08:00:50.417Z,5.93
2019-06-07T08:03:01.698Z,5.62
2019-06-07T08:05:41.979Z,19.90
2019-06-07T08:08:01.454Z,29.82
2019-06-07T08:10:28.044Z,14.53
2019-06-07T08:13:22.087Z,8.93
2019-06-07T08:15:26.027Z,5.47
2019-06-07T08:17:59.024Z,5.17
2019-06-07T08:20:23.972Z,7.53
2019-06-07T08:22:52.642Z,12.60
2019-06-07T08:25:21.366Z,4.78
2019-06-07T08:27:49.539Z,5.55
2019-06-07T08:32:51.541Z,21.35
2019-06-07T08:36:03.185Z,11.77
2019-06-07T08:38:21.656Z,5.75
2019-06-07T08:40:18.745Z,6.10
2019-06-07T08:43:04.425Z,5.28
2019-06-07T08:45:16.990Z,4.97
2019-06-07T08:47:45.196Z,6.12
2019-06-07T08:50:14.023Z,4.78
2019-06-07T08:52:42.462Z,5.80
2019-06-07T08:55:10.659Z,3.77
2019-06-07T08:57:38.642Z,5.50
2019-06-07T09:00:41.818Z,8.33
2019-06-07T09:02:36.709Z,4.22
2019-06-07T09:05:11.701Z,6.03
2019-06-07T09:07:35.370Z,4.83
2019-06-07T09:10:12.697Z,6.58
2019-06-07T09:12:33.035Z,3.70
2019-06-07T09:15:17.736Z,3.90
2019-06-07T09:17:31.397Z,3.87
2019-06-07T09:20:07.313Z,5.08
2019-06-07T09:22:29.718Z,4.33
2019-06-07T09:25:05.940Z,3.55
2019-06-07T09:27:27.988Z,6.87
2019-06-07T09:30:00.754Z,9.40
2019-06-07T09:32:26.653Z,5.13
2019-06-07T09:35:02.515Z,5.47
2019-06-07T09:38:03.714Z,5.95
2019-06-07T09:39:54.692Z,4.85
2019-06-07T09:42:23.370Z,5.70
2019-06-07T09:44:51.383Z,4.58
2019-06-07T09:47:31.677Z,4.97
2019-06-07T09:49:49.529Z,5.10
2019-06-07T09:52:17.765Z,5.05
2019-06-07T09:57:18.001Z,5.90
2019-06-07T09:59:46.857Z,3.27
2019-06-07T10:02:15.124Z,3.37
2019-06-07T10:04:43.085Z,4.92
2019-06-07T10:07:30.221Z,2.83
2019-06-07T10:10:09.222Z,5.60
2019-06-07T10:12:10.922Z,4.20
2019-06-07T10:14:39.146Z,3.98
2019-06-07T10:17:07.411Z,2.65
2019-06-07T10:19:35.827Z,3.47
2019-06-07T10:22:05.975Z,7.12
2019-06-07T10:24:34.376Z,3.10
2019-06-07T10:27:03.901Z,4.95
2019-06-07T10:29:32.244Z,4.67
2019-06-07T10:32:02.178Z,3.55
2019-06-07T10:34:31.317Z,3.73
2019-06-07T10:37:02.950Z,4.10
2019-06-07T10:39:30.226Z,4.37
2019-06-07T10:41:58.222Z,3.80
2019-06-07T10:44:26.554Z,4.35
2019-06-07T10:46:54.714Z,5.20
2019-06-07T10:49:22.927Z,3.62
2019-06-07T10:51:50.935Z,3.67
2019-06-07T10:54:26.737Z,4.00
2019-06-07T10:56:49.176Z,3.72
2019-06-07T10:59:17.156Z,2.92
2019-06-07T11:01:45.533Z,4.87
2019-06-07T11:04:14.383Z,3.45
2019-06-07T11:06:42.652Z,3.63
2019-06-07T11:09:11.978Z,4.53
2019-06-07T11:11:40.757Z,4.65
2019-06-07T11:14:08.866Z,4.53
2019-06-07T11:16:37.069Z,5.60
2019-06-07T11:19:06.016Z,6.75
2019-06-07T11:21:34.438Z,5.00
2019-06-07T11:24:02.428Z,4.03
2019-06-07T11:26:30.460Z,7.50
2019-06-07T11:28:58.429Z,4.25
2019-06-07T11:31:26.386Z,5.30
2019-06-07T11:33:54.669Z,10.08
2019-06-07T11:36:22.629Z,7.70
2019-06-07T11:38:50.720Z,8.03
2019-06-07T11:41:18.635Z,5.60
2019-06-07T11:43:46.606Z,5.37
2019-06-07T11:46:15.139Z,4.78
2019-06-07T11:48:43.686Z,5.00
2019-06-07T11:51:12.650Z,6.67
2019-06-07T11:53:41.013Z,4.45
2019-06-07T11:56:10.358Z,3.72
2019-06-07T11:58:38.456Z,4.10
2019-06-07T12:01:07.576Z,2.97
2019-06-07T12:03:35.988Z,4.00
2019-06-07T12:06:04.124Z,4.85
2019-06-07T12:08:32.318Z,6.15
2019-06-07T12:11:00.666Z,4.17
2019-06-07T12:13:30.478Z,4.30
2019-06-07T12:15:58.742Z,3.50
2019-06-07T12:18:26.713Z,5.53
2019-06-07T12:20:55.005Z,4.03
2019-06-07T12:23:22.966Z,8.60
2019-06-07T12:25:51.260Z,4.37
2019-06-07T12:28:20.914Z,3.03
2019-06-07T12:30:49.065Z,4.58
2019-06-07T12:33:17.709Z,2.97
2019-06-07T12:35:46.195Z,4.28
2019-06-07T12:38:14.633Z,4.62
2019-06-07T12:40:56.838Z,3.70
2019-06-07T12:43:14.458Z,3.85
2019-06-07T12:45:45.147Z,4.62
2019-06-07T12:48:16.785Z,5.12
2019-06-07T12:50:43.835Z,5.45
2019-06-07T12:53:13.465Z,2.90
2019-06-07T12:55:41.940Z,4.03
2019-06-07T12:58:10.762Z,3.37
2019-06-07T13:00:38.864Z,2.80
2019-06-07T13:03:07.241Z,3.95
2019-06-07T13:05:35.781Z,7.60
2019-06-07T13:08:04.569Z,3.20
2019-06-07T13:10:32.913Z,4.08
2019-06-07T13:13:01.365Z,3.70
2019-06-07T13:15:29.687Z,6.30
2019-06-07T13:17:58.063Z,3.10
2019-06-07T13:20:26.156Z,3.00
2019-06-07T13:22:54.790Z,2.95
2019-06-07T13:25:27.063Z,3.33
2019-06-07T13:27:53.427Z,6.50
2019-06-07T13:30:23.510Z,3.45
2019-06-07T13:32:52.288Z,3.50
2019-06-07T13:35:23.688Z,3.90
2019-06-07T13:37:52.024Z,5.22
2019-06-07T13:40:23.015Z,4.53
2019-06-07T13:42:52.384Z,4.78
2019-06-07T13:45:22.344Z,4.45
2019-06-07T13:47:51.533Z,3.47
2019-06-07T13:50:21.665Z,3.62
2019-06-07T13:52:50.924Z,3.05
2019-06-07T13:55:19.963Z,3.40
2019-06-07T13:57:48.368Z,3.72
2019-06-07T14:00:18.649Z,2.80
2019-06-07T14:02:46.901Z,3.65
2019-06-07T14:05:16.808Z,2.98
2019-06-07T14:07:45.521Z,3.23
2019-06-07T14:10:13.962Z,4.40
2019-06-07T14:12:42.566Z,4.63
2019-06-07T14:15:11.343Z,3.23
2019-06-07T14:17:39.781Z,4.85
2019-06-07T14:20:09.394Z,3.47
2019-06-07T14:22:38.719Z,3.17
2019-06-07T14:25:07.471Z,4.20
2019-06-07T14:27:36.202Z,3.95
2019-06-07T14:30:05.802Z,3.33
2019-06-07T14:32:33.996Z,5.10
2019-06-07T14:35:02.596Z,5.08
2019-06-07T14:37:31.417Z,3.33
2019-06-07T14:40:00.004Z,4.58
2019-06-07T14:42:33.916Z,3.00
2019-06-07T14:45:05.906Z,8.10
2019-06-07T14:47:34.135Z,3.40
2019-06-07T14:50:02.596Z,3.30
2019-06-07T14:52:33.319Z,2.75
2019-06-07T14:55:01.857Z,4.60
2019-06-07T14:57:31.127Z,3.10
2019-06-07T14:59:59.529Z,2.03
2019-06-07T15:02:28.399Z,3.17
2019-06-07T15:04:56.931Z,4.60
2019-06-07T15:07:26.708Z,3.40
2019-06-07T15:09:54.890Z,3.10
2019-06-07T15:12:25.428Z,3.20
2019-06-07T15:14:52.655Z,4.42
2019-06-07T15:17:20.700Z,2.67
2019-06-07T15:19:48.781Z,2.83
2019-06-07T15:22:16.831Z,2.83
2019-06-07T15:24:45.155Z,2.22
2019-06-07T15:27:13.740Z,4.30
2019-06-07T15:29:42.045Z,3.98
2019-06-07T15:32:10.118Z,2.93
2019-06-07T15:34:38.420Z,4.05
2019-06-07T15:37:06.502Z,3.85
2019-06-07T15:39:34.742Z,2.80
2019-06-07T15:42:03.076Z,2.50
2019-06-07T15:44:31.208Z,3.52
2019-06-07T15:46:59.189Z,2.10
2019-06-07T15:49:27.563Z,5.10
2019-06-07T15:51:57.316Z,2.90
2019-06-07T15:54:25.660Z,3.70
2019-06-07T15:56:53.921Z,2.50
2019-06-07T15:59:22.284Z,2.50
2019-06-07T16:01:50.837Z,4.33
2019-06-07T16:04:21.090Z,3.00
2019-06-07T16:06:49.290Z,3.90
2019-06-07T16:09:17.702Z,4.50
2019-06-07T16:11:46.041Z,2.80
2019-06-07T16:14:14.405Z,3.80
2019-06-07T16:16:43.426Z,4.35
2019-06-07T16:19:14.662Z,4.20
2019-06-07T16:21:43.808Z,3.50
2019-06-07T16:24:16.770Z,3.80
2019-06-07T16:26:50.155Z,3.87
2019-06-07T16:29:19.054Z,3.05
2019-06-07T16:31:48.796Z,2.62
2019-06-07T16:34:17.020Z,4.60
2019-06-07T16:36:46.963Z,3.50
2019-06-07T16:39:17.702Z,3.02
2019-06-07T16:41:46.914Z,4.05
2019-06-07T16:44:15.675Z,2.52
2019-06-07T16:46:45.084Z,4.20
2019-06-07T16:49:13.167Z,2.30
2019-06-07T16:51:43.356Z,2.40
2019-06-07T16:54:11.833Z,3.90
2019-06-07T16:56:45.342Z,6.03
2019-06-07T16:59:10.518Z,2.50
2019-06-07T17:01:39.220Z,5.00
2019-06-07T17:04:08.402Z,4.37
2019-06-07T17:06:37.617Z,3.90
2019-06-07T17:09:06.308Z,2.87
2019-06-07T17:11:34.324Z,2.45
2019-06-07T17:14:02.705Z,4.47
2019-06-07T17:16:31.054Z,3.60
2019-06-07T17:19:01.207Z,4.08
2019-06-07T17:21:29.356Z,3.20
2019-06-07T17:23:58.196Z,4.60
2019-06-07T17:26:26.734Z,4.90
2019-06-07T17:28:54.900Z,3.67
2019-06-07T17:31:23.530Z,4.47
2019-06-07T17:33:52.169Z,4.27
2019-06-07T17:36:20.878Z,5.95
2019-06-07T17:38:49.027Z,3.40
2019-06-07T17:41:18.627Z,5.20
2019-06-07T17:43:56.380Z,2.80
2019-06-07T17:46:17.645Z,6.25
2019-06-07T17:48:47.540Z,5.20
2019-06-07T17:51:15.985Z,3.37
2019-06-07T17:53:47.821Z,3.50
2019-06-07T17:56:16.144Z,5.17
2019-06-07T17:58:44.371Z,2.67
2019-06-07T18:01:13.047Z,3.00
2019-06-07T18:03:41.103Z,4.28
2019-06-07T18:06:10.027Z,4.97
2019-06-07T18:08:38.554Z,4.83
2019-06-07T18:11:07.056Z,5.70
2019-06-07T18:13:35.251Z,3.58
2019-06-07T18:16:03.332Z,4.55
2019-06-07T18:18:31.742Z,4.90
2019-06-07T18:21:00.389Z,4.90
2019-06-07T18:23:30.290Z,3.70
2019-06-07T18:25:58.911Z,4.08
2019-06-07T18:28:26.996Z,4.30
2019-06-07T18:30:55.396Z,3.42
2019-06-07T18:33:23.555Z,7.53
2019-06-07T18:35:51.707Z,5.42
2019-06-07T18:38:19.894Z,4.70
2019-06-07T18:40:49.105Z,4.97
2019-06-07T18:43:17.336Z,4.10
2019-06-07T18:45:47.311Z,5.40
2019-06-07T18:48:15.652Z,6.62
2019-06-07T18:50:43.797Z,4.17
2019-06-07T18:53:12.636Z,5.05
2019-06-07T18:55:41.037Z,8.28
2019-06-07T18:58:09.334Z,6.20
2019-06-07T19:00:37.856Z,4.50
2019-06-07T19:03:06.484Z,6.35
2019-06-07T19:05:36.402Z,5.40
2019-06-07T19:08:04.530Z,5.30
2019-06-07T19:10:33.576Z,4.37
2019-06-07T19:13:01.782Z,6.10
2019-06-07T19:15:30.635Z,6.60
2019-06-07T19:18:00.742Z,6.60
2019-06-07T19:20:29.248Z,6.83
2019-06-07T19:22:58.321Z,6.67
2019-06-07T19:25:27.374Z,5.40
2019-06-07T19:27:57.055Z,7.12
2019-06-07T19:30:26.341Z,7.83
2019-06-07T19:32:55.256Z,5.90
2019-06-07T19:35:24.501Z,8.98
2019-06-07T19:37:53.764Z,7.70
2019-06-07T19:40:22.612Z,6.50
2019-06-07T19:42:52.157Z,6.17
2019-06-07T19:45:30.914Z,4.90
2019-06-07T19:47:50.535Z,5.03
2019-06-07T19:50:18.960Z,4.83
2019-06-07T19:52:47.603Z,5.45
2019-06-07T19:55:16.621Z,6.37
2019-06-07T19:57:45.061Z,6.60
2019-06-07T20:00:14.664Z,4.90
2019-06-07T20:02:43.655Z,6.60
2019-06-07T20:05:15.260Z,6.85
2019-06-07T20:07:43.701Z,7.40
2019-06-07T20:10:12.330Z,6.30
2019-06-07T20:12:40.498Z,6.70
2019-06-07T20:15:26.997Z,7.85
2019-06-07T20:17:39.361Z,6.10
2019-06-07T20:20:08.932Z,4.58
2019-06-07T20:22:37.384Z,5.60
2019-06-07T20:25:05.733Z,6.00
2019-06-07T20:27:33.755Z,5.03
2019-06-07T20:30:02.434Z,7.47
2019-06-07T20:32:30.914Z,5.33
2019-06-07T20:34:59.805Z,5.75
2019-06-07T20:37:29.653Z,5.47
2019-06-07T20:40:19.507Z,5.42
2019-06-07T20:42:34.804Z,6.03
2019-06-07T20:45:03.958Z,5.58
2019-06-07T20:47:32.343Z,4.83
2019-06-07T20:50:02.356Z,7.33
2019-06-07T20:52:30.638Z,5.25
2019-06-07T20:55:00.511Z,6.23
2019-06-07T20:57:29.138Z,7.67
2019-06-07T20:59:58.715Z,7.10
2019-06-07T21:02:27.059Z,5.85
2019-06-07T21:04:55.199Z,6.53
2019-06-07T21:07:23.669Z,7.07
2019-06-07T21:09:51.971Z,7.90
2019-06-07T21:12:21.138Z,5.37
2019-06-07T21:14:49.426Z,5.25
2019-06-07T21:17:17.648Z,5.42
2019-06-07T21:20:25.626Z,8.18
2019-06-07T21:22:54.587Z,7.80
2019-06-07T21:27:53.353Z,7.00
2019-06-07T21:30:25.010Z,6.58
2019-06-07T21:32:54.703Z,7.72
2019-06-07T21:35:24.503Z,5.65
2019-06-07T21:37:53.607Z,6.37
2019-06-07T21:40:22.898Z,6.17
2019-06-07T21:42:51.690Z,5.65
2019-06-07T21:45:22.414Z,7.30
2019-06-07T21:47:51.346Z,6.50
2019-06-07T21:50:20.868Z,6.20
2019-06-07T21:55:19.187Z,8.98
2019-06-07T21:57:48.789Z,5.70
2019-06-07T22:02:53.010Z,6.95
2019-06-07T22:05:21.999Z,6.60
2019-06-07T22:07:50.832Z,6.42
2019-06-07T22:10:19.865Z,5.50
2019-06-07T22:12:49.382Z,6.20
2019-06-07T22:15:30.942Z,5.60
2019-06-07T22:20:19.489Z,7.20
2019-06-07T22:22:48.542Z,5.77
2019-06-07T22:25:17.087Z,5.60
2019-06-07T22:27:46.043Z,6.77
2019-06-07T22:30:15.032Z,5.62
2019-06-07T22:32:44.301Z,7.40
2019-06-07T22:35:15.004Z,7.45
2019-06-07T22:37:44.781Z,10.00
2019-06-07T22:42:43.520Z,5.33
2019-06-07T22:45:27.926Z,8.35
2019-06-07T22:48:09.161Z,7.22
2019-06-07T22:50:37.673Z,6.53
2019-06-07T22:53:07.365Z,7.05
2019-06-07T22:55:35.929Z,8.13
2019-06-07T22:58:03.955Z,10.40
2019-06-07T23:00:33.240Z,6.20
2019-06-07T23:03:02.033Z,8.93
2019-06-07T23:05:30.659Z,10.28
2019-06-07T23:10:30.904Z,13.85
2019-06-07T23:12:59.089Z,15.65
2019-06-07T23:15:27.774Z,15.95
2019-06-07T23:17:55.950Z,19.85
2019-06-07T23:20:24.763Z,26.00
2019-06-07T23:25:39.826Z,22.90
2019-06-07T23:28:31.107Z,19.45
2019-06-07T23:31:14.426Z,23.47
2019-06-07T23:33:55.615Z,29.70
2019-06-07T23:36:45.961Z,24.80
2019-06-07T23:39:28.152Z,21.37
2019-06-07T23:45:03.495Z,28.00
2019-06-07T23:47:43.784Z,27.30
2019-06-07T23:50:23.918Z,27.65
2019-06-07T23:53:05.194Z,32.90
2019-06-07T23:58:35.783Z,30.32
